sensor_id;sensor_type;location;lat;lon;timestamp;P1;durP1;ratioP1;P2;durP2;ratioP2
5690;SDS011;2870;42.680;23.364;2023-03-25T00:00:48;25.63;;;14.20;;
5690;SDS011;2870;42.680;23.364;2023-03-25T00:03:19;33.90;;;16.17;;
5690;SDS011;2870;42.680;23.364;2023-03-25T00:05:46;25.80;;;15.07;;
5690;SDS011;2870;42.680;23.364;2023-03-25T00:08:13;19.87;;;14.80;;
5690;SDS011;2870;42.680;23.364;2023-03-25T00:10:41;23.83;;;15.00;;
5690;SDS011;2870;42.680;23.364;2023-03-25T00:13:07;26.03;;;15.10;;
5690;SDS011;2870;42.680;23.364;2023-03-25T00:15:40;21.60;;;14.17;;
5690;SDS011;2870;42.680;23.364;2023-03-25T00:18:10;35.37;;;15.30;;
5690;SDS011;2870;42.680;23.364;2023-03-25T00:20:38;24.77;;;16.00;;
5690;SDS011;2870;42.680;23.364;2023-03-25T00:23:10;28.50;;;15.30;;
5690;SDS011;2870;42.680;23.364;2023-03-25T00:25:37;31.17;;;17.10;;
5690;SDS011;2870;42.680;23.364;2023-03-25T00:28:04;33.10;;;16.30;;
5690;SDS011;2870;42.680;23.364;2023-03-25T00:30:30;29.03;;;15.77;;
5690;SDS011;2870;42.680;23.364;2023-03-25T00:32:57;33.13;;;16.13;;
5690;SDS011;2870;42.680;23.364;2023-03-25T00:35:25;30.40;;;17.20;;
5690;SDS011;2870;42.680;23.364;2023-03-25T00:37:54;25.80;;;15.90;;
5690;SDS011;2870;42.680;23.364;2023-03-25T00:40:24;28.77;;;16.10;;
5690;SDS011;2870;42.680;23.364;2023-03-25T00:42:52;26.53;;;15.40;;
5690;SDS011;2870;42.680;23.364;2023-03-25T00:45:19;25.47;;;15.80;;
5690;SDS011;2870;42.680;23.364;2023-03-25T00:47:46;28.83;;;17.23;;
5690;SDS011;2870;42.680;23.364;2023-03-25T00:50:13;32.93;;;18.33;;
5690;SDS011;2870;42.680;23.364;2023-03-25T00:52:40;31.50;;;17.77;;
5690;SDS011;2870;42.680;23.364;2023-03-25T00:55:08;30.23;;;18.33;;
5690;SDS011;2870;42.680;23.364;2023-03-25T00:57:35;25.90;;;16.93;;
5690;SDS011;2870;42.680;23.364;2023-03-25T01:00:02;29.03;;;17.00;;
5690;SDS011;2870;42.680;23.364;2023-03-25T01:02:32;30.13;;;17.73;;
5690;SDS011;2870;42.680;23.364;2023-03-25T01:04:58;27.67;;;18.50;;
5690;SDS011;2870;42.680;23.364;2023-03-25T01:07:25;34.07;;;17.83;;
5690;SDS011;2870;42.680;23.364;2023-03-25T01:09:53;30.07;;;18.17;;
5690;SDS011;2870;42.680;23.364;2023-03-25T01:12:22;36.13;;;18.73;;
5690;SDS011;2870;42.680;23.364;2023-03-25T01:14:50;30.17;;;18.50;;
5690;SDS011;2870;42.680;23.364;2023-03-25T01:17:17;29.10;;;18.03;;
5690;SDS011;2870;42.680;23.364;2023-03-25T01:19:44;30.17;;;18.73;;
5690;SDS011;2870;42.680;23.364;2023-03-25T01:22:12;31.33;;;18.30;;
5690;SDS011;2870;42.680;23.364;2023-03-25T01:24:39;27.70;;;16.50;;
5690;SDS011;2870;42.680;23.364;2023-03-25T01:27:05;29.70;;;18.27;;
5690;SDS011;2870;42.680;23.364;2023-03-25T01:29:33;28.80;;;17.43;;
5690;SDS011;2870;42.680;23.364;2023-03-25T01:32:01;29.20;;;18.00;;
5690;SDS011;2870;42.680;23.364;2023-03-25T01:34:27;48.37;;;19.50;;
5690;SDS011;2870;42.680;23.364;2023-03-25T01:36:57;48.93;;;18.93;;
5690;SDS011;2870;42.680;23.364;2023-03-25T01:39:25;36.47;;;18.90;;
5690;SDS011;2870;42.680;23.364;2023-03-25T01:41:51;29.00;;;18.13;;
5690;SDS011;2870;42.680;23.364;2023-03-25T01:47:24;45.73;;;17.80;;
5690;SDS011;2870;42.680;23.364;2023-03-25T01:49:51;33.77;;;17.50;;
5690;SDS011;2870;42.680;23.364;2023-03-25T01:52:20;31.20;;;17.87;;
5690;SDS011;2870;42.680;23.364;2023-03-25T01:54:50;28.97;;;17.40;;
5690;SDS011;2870;42.680;23.364;2023-03-25T01:57:19;26.77;;;17.10;;
5690;SDS011;2870;42.680;23.364;2023-03-25T01:59:50;32.50;;;17.57;;
5690;SDS011;2870;42.680;23.364;2023-03-25T02:02:18;28.07;;;17.43;;
5690;SDS011;2870;42.680;23.364;2023-03-25T02:04:50;32.00;;;18.40;;
5690;SDS011;2870;42.680;23.364;2023-03-25T02:07:23;38.43;;;17.47;;
5690;SDS011;2870;42.680;23.364;2023-03-25T02:09:55;34.10;;;18.77;;
5690;SDS011;2870;42.680;23.364;2023-03-25T02:12:23;39.13;;;18.73;;
5690;SDS011;2870;42.680;23.364;2023-03-25T02:14:50;32.23;;;16.67;;
5690;SDS011;2870;42.680;23.364;2023-03-25T02:17:19;34.03;;;17.37;;
5690;SDS011;2870;42.680;23.364;2023-03-25T02:29:15;26.47;;;16.30;;
5690;SDS011;2870;42.680;23.364;2023-03-25T02:31:53;29.50;;;16.40;;
5690;SDS011;2870;42.680;23.364;2023-03-25T02:34:44;29.70;;;16.77;;
5690;SDS011;2870;42.680;23.364;2023-03-25T02:37:32;30.73;;;17.60;;
5690;SDS011;2870;42.680;23.364;2023-03-25T02:40:25;23.20;;;14.10;;
5690;SDS011;2870;42.680;23.364;2023-03-25T02:42:59;22.73;;;15.20;;
5690;SDS011;2870;42.680;23.364;2023-03-25T02:45:33;26.57;;;16.77;;
5690;SDS011;2870;42.680;23.364;2023-03-25T02:48:04;29.67;;;16.67;;
5690;SDS011;2870;42.680;23.364;2023-03-25T02:50:36;28.33;;;15.70;;
5690;SDS011;2870;42.680;23.364;2023-03-25T02:53:08;27.47;;;16.70;;
5690;SDS011;2870;42.680;23.364;2023-03-25T02:55:38;32.70;;;17.73;;
5690;SDS011;2870;42.680;23.364;2023-03-25T02:58:08;26.90;;;18.20;;
5690;SDS011;2870;42.680;23.364;2023-03-25T03:00:38;26.07;;;16.07;;
5690;SDS011;2870;42.680;23.364;2023-03-25T03:03:06;29.90;;;16.67;;
5690;SDS011;2870;42.680;23.364;2023-03-25T03:05:34;48.77;;;16.30;;
5690;SDS011;2870;42.680;23.364;2023-03-25T03:08:07;27.20;;;16.87;;
5690;SDS011;2870;42.680;23.364;2023-03-25T03:10:49;31.63;;;16.63;;
5690;SDS011;2870;42.680;23.364;2023-03-25T03:13:24;33.97;;;17.63;;
5690;SDS011;2870;42.680;23.364;2023-03-25T03:16:02;34.77;;;18.00;;
5690;SDS011;2870;42.680;23.364;2023-03-25T03:18:38;27.47;;;16.20;;
5690;SDS011;2870;42.680;23.364;2023-03-25T03:21:11;30.10;;;17.40;;
5690;SDS011;2870;42.680;23.364;2023-03-25T03:23:44;29.47;;;18.00;;
5690;SDS011;2870;42.680;23.364;2023-03-25T03:26:24;23.13;;;15.47;;
5690;SDS011;2870;42.680;23.364;2023-03-25T03:29:00;35.70;;;17.03;;
5690;SDS011;2870;42.680;23.364;2023-03-25T03:31:36;25.70;;;17.57;;
5690;SDS011;2870;42.680;23.364;2023-03-25T03:34:08;28.00;;;16.93;;
5690;SDS011;2870;42.680;23.364;2023-03-25T03:36:40;36.77;;;18.40;;
5690;SDS011;2870;42.680;23.364;2023-03-25T03:39:12;28.67;;;16.53;;
5690;SDS011;2870;42.680;23.364;2023-03-25T03:41:45;29.00;;;17.77;;
5690;SDS011;2870;42.680;23.364;2023-03-25T03:44:18;28.23;;;16.20;;
5690;SDS011;2870;42.680;23.364;2023-03-25T03:46:48;28.13;;;17.00;;
5690;SDS011;2870;42.680;23.364;2023-03-25T03:49:20;30.53;;;18.10;;
5690;SDS011;2870;42.680;23.364;2023-03-25T03:51:51;29.37;;;17.53;;
5690;SDS011;2870;42.680;23.364;2023-03-25T03:54:23;27.80;;;17.07;;
5690;SDS011;2870;42.680;23.364;2023-03-25T03:56:53;27.60;;;16.97;;
5690;SDS011;2870;42.680;23.364;2023-03-25T03:59:26;39.67;;;17.70;;
5690;SDS011;2870;42.680;23.364;2023-03-25T04:02:01;30.50;;;16.50;;
5690;SDS011;2870;42.680;23.364;2023-03-25T04:04:33;25.77;;;17.43;;
5690;SDS011;2870;42.680;23.364;2023-03-25T04:07:03;32.77;;;16.20;;
5690;SDS011;2870;42.680;23.364;2023-03-25T04:09:40;29.20;;;17.70;;
5690;SDS011;2870;42.680;23.364;2023-03-25T04:12:21;29.27;;;17.27;;
5690;SDS011;2870;42.680;23.364;2023-03-25T04:14:51;34.57;;;17.93;;
5690;SDS011;2870;42.680;23.364;2023-03-25T04:17:19;24.07;;;16.20;;
5690;SDS011;2870;42.680;23.364;2023-03-25T04:19:46;33.47;;;17.63;;
5690;SDS011;2870;42.680;23.364;2023-03-25T04:22:13;27.80;;;17.73;;
5690;SDS011;2870;42.680;23.364;2023-03-25T04:24:42;32.30;;;18.40;;
5690;SDS011;2870;42.680;23.364;2023-03-25T04:27:09;31.87;;;17.27;;
5690;SDS011;2870;42.680;23.364;2023-03-25T04:29:39;27.47;;;16.80;;
5690;SDS011;2870;42.680;23.364;2023-03-25T04:32:08;33.70;;;18.27;;
5690;SDS011;2870;42.680;23.364;2023-03-25T04:34:37;43.77;;;17.90;;
5690;SDS011;2870;42.680;23.364;2023-03-25T04:37:04;29.73;;;15.80;;
5690;SDS011;2870;42.680;23.364;2023-03-25T04:39:30;27.73;;;18.03;;
5690;SDS011;2870;42.680;23.364;2023-03-25T04:41:58;29.03;;;17.03;;
5690;SDS011;2870;42.680;23.364;2023-03-25T04:44:27;25.93;;;15.87;;
5690;SDS011;2870;42.680;23.364;2023-03-25T04:46:58;31.00;;;17.17;;
5690;SDS011;2870;42.680;23.364;2023-03-25T04:49:27;30.33;;;15.80;;
5690;SDS011;2870;42.680;23.364;2023-03-25T04:51:54;25.77;;;16.63;;
5690;SDS011;2870;42.680;23.364;2023-03-25T04:54:22;28.10;;;16.60;;
5690;SDS011;2870;42.680;23.364;2023-03-25T04:56:49;24.30;;;15.57;;
5690;SDS011;2870;42.680;23.364;2023-03-25T04:59:17;34.20;;;18.50;;
5690;SDS011;2870;42.680;23.364;2023-03-25T05:01:45;28.50;;;16.43;;
5690;SDS011;2870;42.680;23.364;2023-03-25T05:04:14;33.17;;;17.57;;
5690;SDS011;2870;42.680;23.364;2023-03-25T05:06:43;43.93;;;19.53;;
5690;SDS011;2870;42.680;23.364;2023-03-25T05:09:12;29.90;;;16.93;;
5690;SDS011;2870;42.680;23.364;2023-03-25T05:11:40;36.90;;;17.97;;
5690;SDS011;2870;42.680;23.364;2023-03-25T05:14:08;32.33;;;18.47;;
5690;SDS011;2870;42.680;23.364;2023-03-25T05:16:35;30.43;;;17.70;;
5690;SDS011;2870;42.680;23.364;2023-03-25T05:19:03;30.13;;;15.83;;
5690;SDS011;2870;42.680;23.364;2023-03-25T05:21:32;29.23;;;17.07;;
5690;SDS011;2870;42.680;23.364;2023-03-25T05:24:00;30.90;;;16.60;;
5690;SDS011;2870;42.680;23.364;2023-03-25T05:26:26;25.83;;;15.67;;
5690;SDS011;2870;42.680;23.364;2023-03-25T05:28:59;26.93;;;15.60;;
5690;SDS011;2870;42.680;23.364;2023-03-25T05:31:26;29.03;;;16.40;;
5690;SDS011;2870;42.680;23.364;2023-03-25T05:33:54;23.93;;;16.33;;
5690;SDS011;2870;42.680;23.364;2023-03-25T05:36:21;28.50;;;16.47;;
5690;SDS011;2870;42.680;23.364;2023-03-25T05:38:50;26.30;;;16.67;;
5690;SDS011;2870;42.680;23.364;2023-03-25T05:41:19;26.03;;;16.67;;
5690;SDS011;2870;42.680;23.364;2023-03-25T05:43:46;33.47;;;17.33;;
5690;SDS011;2870;42.680;23.364;2023-03-25T05:46:15;27.13;;;16.37;;
5690;SDS011;2870;42.680;23.364;2023-03-25T05:48:42;31.13;;;16.33;;
5690;SDS011;2870;42.680;23.364;2023-03-25T05:51:11;29.97;;;15.77;;
5690;SDS011;2870;42.680;23.364;2023-03-25T05:53:40;26.40;;;16.77;;
5690;SDS011;2870;42.680;23.364;2023-03-25T05:56:10;25.13;;;16.30;;
5690;SDS011;2870;42.680;23.364;2023-03-25T05:58:37;32.60;;;18.23;;
5690;SDS011;2870;42.680;23.364;2023-03-25T06:01:04;29.83;;;17.27;;
5690;SDS011;2870;42.680;23.364;2023-03-25T06:03:33;34.67;;;20.43;;
5690;SDS011;2870;42.680;23.364;2023-03-25T06:06:00;36.00;;;21.53;;
5690;SDS011;2870;42.680;23.364;2023-03-25T06:08:29;38.30;;;24.03;;
5690;SDS011;2870;42.680;23.364;2023-03-25T06:10:57;50.83;;;25.20;;
5690;SDS011;2870;42.680;23.364;2023-03-25T06:13:26;46.03;;;26.37;;
5690;SDS011;2870;42.680;23.364;2023-03-25T06:15:53;49.73;;;25.20;;
5690;SDS011;2870;42.680;23.364;2023-03-25T06:18:21;43.80;;;22.70;;
5690;SDS011;2870;42.680;23.364;2023-03-25T06:20:49;32.20;;;22.00;;
5690;SDS011;2870;42.680;23.364;2023-03-25T06:23:18;35.57;;;20.13;;
5690;SDS011;2870;42.680;23.364;2023-03-25T06:25:47;36.57;;;21.20;;
5690;SDS011;2870;42.680;23.364;2023-03-25T06:28:14;32.33;;;21.73;;
5690;SDS011;2870;42.680;23.364;2023-03-25T06:30:44;30.93;;;19.83;;
5690;SDS011;2870;42.680;23.364;2023-03-25T06:33:11;30.10;;;20.60;;
5690;SDS011;2870;42.680;23.364;2023-03-25T06:35:38;41.83;;;20.77;;
5690;SDS011;2870;42.680;23.364;2023-03-25T06:38:05;31.67;;;21.87;;
5690;SDS011;2870;42.680;23.364;2023-03-25T06:40:33;34.63;;;23.90;;
5690;SDS011;2870;42.680;23.364;2023-03-25T06:43:02;37.67;;;23.47;;
5690;SDS011;2870;42.680;23.364;2023-03-25T06:45:29;35.27;;;23.77;;
5690;SDS011;2870;42.680;23.364;2023-03-25T06:47:57;36.17;;;22.80;;
5690;SDS011;2870;42.680;23.364;2023-03-25T06:50:24;37.80;;;24.57;;
5690;SDS011;2870;42.680;23.364;2023-03-25T06:52:50;37.40;;;23.00;;
5690;SDS011;2870;42.680;23.364;2023-03-25T06:55:17;36.47;;;22.00;;
5690;SDS011;2870;42.680;23.364;2023-03-25T06:57:44;27.87;;;20.20;;
5690;SDS011;2870;42.680;23.364;2023-03-25T07:00:11;30.47;;;20.87;;
5690;SDS011;2870;42.680;23.364;2023-03-25T07:02:39;32.13;;;18.80;;
5690;SDS011;2870;42.680;23.364;2023-03-25T07:05:07;42.63;;;21.43;;
5690;SDS011;2870;42.680;23.364;2023-03-25T07:07:34;27.63;;;18.40;;
5690;SDS011;2870;42.680;23.364;2023-03-25T07:10:01;33.43;;;18.70;;
5690;SDS011;2870;42.680;23.364;2023-03-25T07:12:28;39.13;;;20.17;;
5690;SDS011;2870;42.680;23.364;2023-03-25T07:14:55;34.00;;;19.30;;
5690;SDS011;2870;42.680;23.364;2023-03-25T07:17:23;28.30;;;19.80;;
5690;SDS011;2870;42.680;23.364;2023-03-25T07:19:50;36.77;;;19.27;;
5690;SDS011;2870;42.680;23.364;2023-03-25T07:22:18;33.60;;;18.80;;
5690;SDS011;2870;42.680;23.364;2023-03-25T07:24:45;31.33;;;18.10;;
5690;SDS011;2870;42.680;23.364;2023-03-25T07:27:12;29.40;;;18.57;;
5690;SDS011;2870;42.680;23.364;2023-03-25T07:29:40;31.80;;;17.63;;
5690;SDS011;2870;42.680;23.364;2023-03-25T07:32:07;28.60;;;17.47;;
5690;SDS011;2870;42.680;23.364;2023-03-25T07:34:34;29.43;;;16.77;;
5690;SDS011;2870;42.680;23.364;2023-03-25T07:37:02;39.53;;;18.27;;
5690;SDS011;2870;42.680;23.364;2023-03-25T07:39:30;34.70;;;18.53;;
5690;SDS011;2870;42.680;23.364;2023-03-25T07:41:57;40.43;;;18.90;;
5690;SDS011;2870;42.680;23.364;2023-03-25T07:44:24;32.97;;;15.90;;
5690;SDS011;2870;42.680;23.364;2023-03-25T07:46:51;34.40;;;16.00;;
5690;SDS011;2870;42.680;23.364;2023-03-25T07:49:18;27.40;;;16.50;;
5690;SDS011;2870;42.680;23.364;2023-03-25T07:51:45;29.97;;;16.10;;
5690;SDS011;2870;42.680;23.364;2023-03-25T07:54:12;57.63;;;17.67;;
5690;SDS011;2870;42.680;23.364;2023-03-25T07:56:40;25.27;;;16.43;;
5690;SDS011;2870;42.680;23.364;2023-03-25T07:59:07;24.80;;;15.97;;
5690;SDS011;2870;42.680;23.364;2023-03-25T08:01:34;29.73;;;17.10;;
5690;SDS011;2870;42.680;23.364;2023-03-25T08:04:01;28.03;;;16.17;;
5690;SDS011;2870;42.680;23.364;2023-03-25T08:06:28;28.93;;;17.13;;
5690;SDS011;2870;42.680;23.364;2023-03-25T08:08:55;28.00;;;16.20;;
5690;SDS011;2870;42.680;23.364;2023-03-25T08:11:22;24.90;;;15.37;;
5690;SDS011;2870;42.680;23.364;2023-03-25T08:13:50;29.00;;;16.30;;
5690;SDS011;2870;42.680;23.364;2023-03-25T08:16:17;25.97;;;16.10;;
5690;SDS011;2870;42.680;23.364;2023-03-25T08:18:44;37.87;;;16.87;;
5690;SDS011;2870;42.680;23.364;2023-03-25T08:21:17;27.33;;;16.50;;
5690;SDS011;2870;42.680;23.364;2023-03-25T08:23:49;24.47;;;14.40;;
5690;SDS011;2870;42.680;23.364;2023-03-25T08:26:16;24.50;;;14.43;;
5690;SDS011;2870;42.680;23.364;2023-03-25T08:28:43;28.17;;;15.33;;
5690;SDS011;2870;42.680;23.364;2023-03-25T08:31:12;33.10;;;19.10;;
5690;SDS011;2870;42.680;23.364;2023-03-25T08:33:39;25.53;;;16.43;;
5690;SDS011;2870;42.680;23.364;2023-03-25T08:36:07;33.80;;;15.97;;
5690;SDS011;2870;42.680;23.364;2023-03-25T08:38:38;22.83;;;14.63;;
5690;SDS011;2870;42.680;23.364;2023-03-25T08:41:06;24.50;;;13.23;;
5690;SDS011;2870;42.680;23.364;2023-03-25T08:43:33;21.57;;;14.90;;
5690;SDS011;2870;42.680;23.364;2023-03-25T08:45:59;26.70;;;15.87;;
5690;SDS011;2870;42.680;23.364;2023-03-25T08:48:28;29.00;;;15.20;;
5690;SDS011;2870;42.680;23.364;2023-03-25T08:50:55;31.77;;;18.00;;
5690;SDS011;2870;42.680;23.364;2023-03-25T08:53:22;42.97;;;16.30;;
5690;SDS011;2870;42.680;23.364;2023-03-25T08:55:49;32.70;;;17.60;;
5690;SDS011;2870;42.680;23.364;2023-03-25T08:58:18;37.33;;;18.70;;
5690;SDS011;2870;42.680;23.364;2023-03-25T09:00:46;31.63;;;14.10;;
5690;SDS011;2870;42.680;23.364;2023-03-25T09:03:13;25.30;;;16.77;;
5690;SDS011;2870;42.680;23.364;2023-03-25T09:05:42;25.30;;;15.47;;
5690;SDS011;2870;42.680;23.364;2023-03-25T09:08:09;33.40;;;17.20;;
5690;SDS011;2870;42.680;23.364;2023-03-25T09:10:36;35.30;;;18.50;;
5690;SDS011;2870;42.680;23.364;2023-03-25T09:13:03;45.00;;;17.87;;
5690;SDS011;2870;42.680;23.364;2023-03-25T09:15:29;27.87;;;16.17;;
5690;SDS011;2870;42.680;23.364;2023-03-25T09:17:57;22.00;;;15.00;;
5690;SDS011;2870;42.680;23.364;2023-03-25T09:20:23;25.13;;;14.07;;
5690;SDS011;2870;42.680;23.364;2023-03-25T09:22:52;25.53;;;15.40;;
5690;SDS011;2870;42.680;23.364;2023-03-25T09:25:19;31.23;;;14.77;;
5690;SDS011;2870;42.680;23.364;2023-03-25T09:27:46;24.90;;;13.10;;
5690;SDS011;2870;42.680;23.364;2023-03-25T09:30:12;23.33;;;13.60;;
5690;SDS011;2870;42.680;23.364;2023-03-25T09:32:40;26.03;;;14.60;;
5690;SDS011;2870;42.680;23.364;2023-03-25T09:35:08;29.43;;;15.83;;
5690;SDS011;2870;42.680;23.364;2023-03-25T09:37:35;21.20;;;12.60;;
5690;SDS011;2870;42.680;23.364;2023-03-25T09:40:04;19.87;;;11.20;;
5690;SDS011;2870;42.680;23.364;2023-03-25T09:42:34;28.93;;;11.37;;
5690;SDS011;2870;42.680;23.364;2023-03-25T09:45:13;23.37;;;11.77;;
5690;SDS011;2870;42.680;23.364;2023-03-25T09:47:51;19.97;;;9.60;;
5690;SDS011;2870;42.680;23.364;2023-03-25T09:50:22;19.17;;;10.23;;
5690;SDS011;2870;42.680;23.364;2023-03-25T09:52:52;22.00;;;11.10;;
5690;SDS011;2870;42.680;23.364;2023-03-25T09:55:25;21.20;;;12.07;;
5690;SDS011;2870;42.680;23.364;2023-03-25T09:57:56;34.37;;;11.20;;
5690;SDS011;2870;42.680;23.364;2023-03-25T10:00:27;18.27;;;10.10;;
5690;SDS011;2870;42.680;23.364;2023-03-25T10:02:56;17.33;;;9.70;;
5690;SDS011;2870;42.680;23.364;2023-03-25T10:05:38;20.20;;;10.10;;
5690;SDS011;2870;42.680;23.364;2023-03-25T10:08:15;17.30;;;9.77;;
5690;SDS011;2870;42.680;23.364;2023-03-25T10:10:54;17.10;;;9.30;;
5690;SDS011;2870;42.680;23.364;2023-03-25T10:13:31;19.70;;;9.10;;
5690;SDS011;2870;42.680;23.364;2023-03-25T10:16:06;16.63;;;7.50;;
5690;SDS011;2870;42.680;23.364;2023-03-25T10:18:44;18.00;;;7.00;;
5690;SDS011;2870;42.680;23.364;2023-03-25T10:21:22;13.90;;;6.83;;
5690;SDS011;2870;42.680;23.364;2023-03-25T10:23:54;21.60;;;5.90;;
5690;SDS011;2870;42.680;23.364;2023-03-25T10:26:40;12.20;;;6.77;;
5690;SDS011;2870;42.680;23.364;2023-03-25T10:29:10;11.50;;;5.97;;
5690;SDS011;2870;42.680;23.364;2023-03-25T10:31:42;10.07;;;5.90;;
5690;SDS011;2870;42.680;23.364;2023-03-25T10:34:18;17.83;;;5.50;;
5690;SDS011;2870;42.680;23.364;2023-03-25T10:36:49;16.80;;;5.37;;
5690;SDS011;2870;42.680;23.364;2023-03-25T10:39:19;7.33;;;4.67;;
5690;SDS011;2870;42.680;23.364;2023-03-25T10:41:51;15.00;;;5.47;;
5690;SDS011;2870;42.680;23.364;2023-03-25T10:44:22;10.50;;;5.40;;
5690;SDS011;2870;42.680;23.364;2023-03-25T10:46:53;12.07;;;5.23;;
5690;SDS011;2870;42.680;23.364;2023-03-25T10:49:24;12.77;;;5.20;;
5690;SDS011;2870;42.680;23.364;2023-03-25T10:51:53;9.43;;;5.43;;
5690;SDS011;2870;42.680;23.364;2023-03-25T10:54:23;9.00;;;5.20;;
5690;SDS011;2870;42.680;23.364;2023-03-25T10:56:55;13.53;;;6.00;;
5690;SDS011;2870;42.680;23.364;2023-03-25T10:59:26;9.33;;;5.60;;
5690;SDS011;2870;42.680;23.364;2023-03-25T11:01:59;15.60;;;5.40;;
5690;SDS011;2870;42.680;23.364;2023-03-25T11:04:35;20.77;;;5.80;;
5690;SDS011;2870;42.680;23.364;2023-03-25T11:07:08;18.90;;;6.23;;
5690;SDS011;2870;42.680;23.364;2023-03-25T11:09:43;10.33;;;6.07;;
5690;SDS011;2870;42.680;23.364;2023-03-25T11:12:12;9.13;;;5.50;;
5690;SDS011;2870;42.680;23.364;2023-03-25T11:14:44;10.87;;;5.53;;
5690;SDS011;2870;42.680;23.364;2023-03-25T11:17:20;12.30;;;6.47;;
5690;SDS011;2870;42.680;23.364;2023-03-25T11:19:51;9.10;;;5.80;;
5690;SDS011;2870;42.680;23.364;2023-03-25T11:22:21;22.07;;;6.43;;
5690;SDS011;2870;42.680;23.364;2023-03-25T11:24:53;8.83;;;5.73;;
5690;SDS011;2870;42.680;23.364;2023-03-25T11:27:27;11.23;;;6.87;;
5690;SDS011;2870;42.680;23.364;2023-03-25T11:29:55;27.07;;;8.83;;
5690;SDS011;2870;42.680;23.364;2023-03-25T11:32:31;12.53;;;7.80;;
5690;SDS011;2870;42.680;23.364;2023-03-25T11:35:00;14.20;;;6.00;;
5690;SDS011;2870;42.680;23.364;2023-03-25T11:37:29;9.47;;;6.10;;
5690;SDS011;2870;42.680;23.364;2023-03-25T11:39:56;9.90;;;5.00;;
5690;SDS011;2870;42.680;23.364;2023-03-25T11:42:32;9.80;;;5.23;;
5690;SDS011;2870;42.680;23.364;2023-03-25T11:45:04;10.13;;;5.80;;
5690;SDS011;2870;42.680;23.364;2023-03-25T11:47:33;18.53;;;9.90;;
5690;SDS011;2870;42.680;23.364;2023-03-25T11:50:02;18.07;;;11.10;;
5690;SDS011;2870;42.680;23.364;2023-03-25T11:52:31;11.20;;;5.30;;
5690;SDS011;2870;42.680;23.364;2023-03-25T11:55:04;8.97;;;5.00;;
5690;SDS011;2870;42.680;23.364;2023-03-25T11:57:35;11.30;;;5.37;;
5690;SDS011;2870;42.680;23.364;2023-03-25T12:00:15;7.40;;;4.50;;
5690;SDS011;2870;42.680;23.364;2023-03-25T12:02:57;8.60;;;5.57;;
5690;SDS011;2870;42.680;23.364;2023-03-25T12:05:24;11.60;;;6.37;;
5690;SDS011;2870;42.680;23.364;2023-03-25T12:07:58;10.17;;;6.83;;
5690;SDS011;2870;42.680;23.364;2023-03-25T12:10:33;9.83;;;5.77;;
5690;SDS011;2870;42.680;23.364;2023-03-25T12:13:12;13.13;;;5.93;;
5690;SDS011;2870;42.680;23.364;2023-03-25T12:15:50;12.70;;;5.93;;
5690;SDS011;2870;42.680;23.364;2023-03-25T12:18:29;10.20;;;5.47;;
5690;SDS011;2870;42.680;23.364;2023-03-25T12:21:21;20.50;;;5.90;;
5690;SDS011;2870;42.680;23.364;2023-03-25T12:24:00;10.43;;;6.17;;
5690;SDS011;2870;42.680;23.364;2023-03-25T12:26:35;10.00;;;5.40;;
5690;SDS011;2870;42.680;23.364;2023-03-25T12:29:16;7.90;;;5.50;;
5690;SDS011;2870;42.680;23.364;2023-03-25T12:31:55;10.10;;;6.90;;
5690;SDS011;2870;42.680;23.364;2023-03-25T12:34:32;13.27;;;5.70;;
5690;SDS011;2870;42.680;23.364;2023-03-25T12:37:12;7.93;;;4.90;;
5690;SDS011;2870;42.680;23.364;2023-03-25T12:39:53;7.77;;;4.90;;
5690;SDS011;2870;42.680;23.364;2023-03-25T12:42:33;15.17;;;5.73;;
5690;SDS011;2870;42.680;23.364;2023-03-25T12:45:20;12.13;;;6.03;;
5690;SDS011;2870;42.680;23.364;2023-03-25T12:47:57;7.60;;;4.87;;
5690;SDS011;2870;42.680;23.364;2023-03-25T12:53:25;10.80;;;5.40;;
5690;SDS011;2870;42.680;23.364;2023-03-25T12:56:08;13.53;;;7.80;;
5690;SDS011;2870;42.680;23.364;2023-03-25T12:58:54;10.60;;;5.70;;
5690;SDS011;2870;42.680;23.364;2023-03-25T13:01:32;11.00;;;5.73;;
5690;SDS011;2870;42.680;23.364;2023-03-25T13:04:11;9.80;;;5.80;;
5690;SDS011;2870;42.680;23.364;2023-03-25T13:06:54;12.97;;;7.50;;
5690;SDS011;2870;42.680;23.364;2023-03-25T13:09:26;9.90;;;6.47;;
5690;SDS011;2870;42.680;23.364;2023-03-25T13:12:01;9.13;;;6.10;;
5690;SDS011;2870;42.680;23.364;2023-03-25T13:14:34;11.70;;;6.37;;
5690;SDS011;2870;42.680;23.364;2023-03-25T13:17:07;9.87;;;5.40;;
5690;SDS011;2870;42.680;23.364;2023-03-25T13:19:41;13.23;;;5.17;;
5690;SDS011;2870;42.680;23.364;2023-03-25T13:22:12;8.07;;;5.23;;
5690;SDS011;2870;42.680;23.364;2023-03-25T13:24:45;10.70;;;6.30;;
5690;SDS011;2870;42.680;23.364;2023-03-25T13:27:16;12.80;;;5.30;;
5690;SDS011;2870;42.680;23.364;2023-03-25T13:29:45;22.20;;;14.53;;
5690;SDS011;2870;42.680;23.364;2023-03-25T13:32:17;20.83;;;6.30;;
5690;SDS011;2870;42.680;23.364;2023-03-25T13:34:50;10.57;;;4.97;;
5690;SDS011;2870;42.680;23.364;2023-03-25T13:37:21;9.33;;;4.53;;
5690;SDS011;2870;42.680;23.364;2023-03-25T13:39:55;10.80;;;5.90;;
5690;SDS011;2870;42.680;23.364;2023-03-25T13:42:40;11.50;;;6.87;;
5690;SDS011;2870;42.680;23.364;2023-03-25T13:45:13;10.67;;;6.37;;
5690;SDS011;2870;42.680;23.364;2023-03-25T13:47:44;15.87;;;8.17;;
5690;SDS011;2870;42.680;23.364;2023-03-25T13:50:19;18.30;;;10.90;;
5690;SDS011;2870;42.680;23.364;2023-03-25T13:52:53;13.50;;;7.07;;
5690;SDS011;2870;42.680;23.364;2023-03-25T13:55:24;12.43;;;5.73;;
5690;SDS011;2870;42.680;23.364;2023-03-25T14:01:01;8.50;;;4.63;;
5690;SDS011;2870;42.680;23.364;2023-03-25T14:06:57;11.80;;;5.67;;
5690;SDS011;2870;42.680;23.364;2023-03-25T14:12:38;9.53;;;5.97;;
5690;SDS011;2870;42.680;23.364;2023-03-25T14:15:09;9.33;;;5.93;;
5690;SDS011;2870;42.680;23.364;2023-03-25T14:17:40;9.80;;;6.00;;
5690;SDS011;2870;42.680;23.364;2023-03-25T14:20:11;9.23;;;5.90;;
5690;SDS011;2870;42.680;23.364;2023-03-25T14:22:50;12.47;;;5.63;;
5690;SDS011;2870;42.680;23.364;2023-03-25T14:25:26;9.80;;;6.10;;
5690;SDS011;2870;42.680;23.364;2023-03-25T14:27:57;9.50;;;5.97;;
5690;SDS011;2870;42.680;23.364;2023-03-25T14:30:26;11.23;;;6.33;;
5690;SDS011;2870;42.680;23.364;2023-03-25T14:32:54;13.70;;;6.37;;
5690;SDS011;2870;42.680;23.364;2023-03-25T14:38:19;10.40;;;6.53;;
5690;SDS011;2870;42.680;23.364;2023-03-25T14:41:07;10.60;;;6.63;;
5690;SDS011;2870;42.680;23.364;2023-03-25T14:43:35;9.33;;;7.00;;
5690;SDS011;2870;42.680;23.364;2023-03-25T14:46:04;10.90;;;6.70;;
5690;SDS011;2870;42.680;23.364;2023-03-25T14:48:48;19.87;;;9.43;;
5690;SDS011;2870;42.680;23.364;2023-03-25T14:51:20;17.10;;;8.37;;
5690;SDS011;2870;42.680;23.364;2023-03-25T14:54:12;13.97;;;7.97;;
5690;SDS011;2870;42.680;23.364;2023-03-25T14:56:51;14.50;;;8.10;;
5690;SDS011;2870;42.680;23.364;2023-03-25T14:59:21;11.37;;;8.47;;
5690;SDS011;2870;42.680;23.364;2023-03-25T15:01:52;12.20;;;8.90;;
5690;SDS011;2870;42.680;23.364;2023-03-25T15:04:23;14.33;;;8.50;;
5690;SDS011;2870;42.680;23.364;2023-03-25T15:06:56;14.90;;;9.63;;
5690;SDS011;2870;42.680;23.364;2023-03-25T15:09:26;23.60;;;14.30;;
5690;SDS011;2870;42.680;23.364;2023-03-25T15:11:55;14.63;;;8.27;;
5690;SDS011;2870;42.680;23.364;2023-03-25T15:14:25;12.23;;;8.03;;
5690;SDS011;2870;42.680;23.364;2023-03-25T15:16:55;12.40;;;8.10;;
5690;SDS011;2870;42.680;23.364;2023-03-25T15:19:27;13.77;;;7.83;;
5690;SDS011;2870;42.680;23.364;2023-03-25T15:22:04;14.43;;;7.60;;
5690;SDS011;2870;42.680;23.364;2023-03-25T15:24:46;10.13;;;7.17;;
5690;SDS011;2870;42.680;23.364;2023-03-25T15:27:20;9.93;;;6.40;;
5690;SDS011;2870;42.680;23.364;2023-03-25T15:30:11;10.77;;;7.50;;